Time;durP1;ratioP1;P1;durP2;ratioP2;P2;SDS_P1;SDS_P2;PMS_P1;PMS_P2;Temp;Humidity;BMP_temperature;BMP_pressure;BME280_temperature;BME280_humidity;BME280_pressure;Samples;Min_cycle;Max_cycle;Signal;HPM_P1;HPM_P2
2022/07/17 00:01:17;;;;;;;3.55;1.73;;;;;;;;;;4956438;29;20412;-76
2022/07/17 00:03:43;;;;;;;1.70;1.60;;;;;;;;;;4956004;29;20035;-77
2022/07/17 00:06:09;;;;;;;1.90;1.70;;;;;;;;;;4956131;29;20043;-76
2022/07/17 00:08:36;;;;;;;3.70;1.92;;;;;;;;;;4956514;28;20051;-76
2022/07/17 00:11:02;;;;;;;2.10;1.88;;;;;;;;;;4956891;29;20118;-76
2022/07/17 00:13:28;;;;;;;2.58;1.73;;;;;;;;;;4956549;28;20059;-76
2022/07/17 00:15:55;;;;;;;6.15;1.77;;;;;;;;;;4975116;28;20042;-76
2022/07/17 00:18:21;;;;;;;4.80;1.85;;;;;;;;;;4960239;29;20121;-76
2022/07/17 00:20:47;;;;;;;3.50;1.75;;;;;;;;;;4960437;29;20090;-76
2022/07/17 00:23:13;;;;;;;2.58;1.85;;;;;;;;;;4960468;28;20073;-76
2022/07/17 00:25:40;;;;;;;2.35;2.10;;;;;;;;;;4975291;28;20035;-76
2022/07/17 00:28:06;;;;;;;3.15;1.88;;;;;;;;;;4960536;28;20039;-76
2022/07/17 00:30:32;;;;;;;1.92;1.80;;;;;;;;;;4960392;29;20070;-76
2022/07/17 00:32:58;;;;;;;2.50;2.03;;;;;;;;;;4959838;28;20047;-76
2022/07/17 00:35:24;;;;;;;3.67;2.13;;;;;;;;;;4960133;29;20039;-76
2022/07/17 00:37:52;;;;;;;2.15;1.95;;;;;;;;;;4960344;29;20371;-75
2022/07/17 00:40:20;;;;;;;2.35;2.10;;;;;;;;;;4959936;28;20094;-75
2022/07/17 00:42:46;;;;;;;2.20;2.00;;;;;;;;;;4960343;29;20549;-75
2022/07/17 00:45:13;;;;;;;3.47;2.00;;;;;;;;;;4959870;29;20546;-75
2022/07/17 00:47:53;;;;;;;2.35;2.15;;;;;;;;;;4959745;29;20371;-75
2022/07/17 00:50:20;;;;;;;2.20;2.00;;;;;;;;;;4960379;28;20050;-75
2022/07/17 00:52:47;;;;;;;2.60;2.13;;;;;;;;;;4960080;29;20075;-75
2022/07/17 00:55:14;;;;;;;2.08;1.80;;;;;;;;;;4959871;29;20149;-75
2022/07/17 00:57:41;;;;;;;4.88;2.20;;;;;;;;;;4960130;28;20126;-75
2022/07/17 01:00:10;;;;;;;2.13;1.90;;;;;;;;;;4960378;29;20126;-75
2022/07/17 01:02:37;;;;;;;5.30;2.15;;;;;;;;;;4974498;28;20054;-76
2022/07/17 01:05:03;;;;;;;2.25;2.00;;;;;;;;;;4959783;28;20043;-75
2022/07/17 01:07:29;;;;;;;3.78;2.22;;;;;;;;;;4960174;29;20046;-76
2022/07/17 01:09:55;;;;;;;4.00;2.17;;;;;;;;;;4959779;29;20051;-76
2022/07/17 01:12:23;;;;;;;2.72;2.33;;;;;;;;;;4959305;29;20054;-75
2022/07/17 01:14:49;;;;;;;2.50;2.30;;;;;;;;;;4959879;28;20043;-75
2022/07/17 01:17:16;;;;;;;7.00;2.60;;;;;;;;;;4959186;29;20043;-75
2022/07/17 01:19:42;;;;;;;2.60;2.40;;;;;;;;;;4958519;29;20062;-75
2022/07/17 01:22:08;;;;;;;3.03;2.03;;;;;;;;;;4957913;29;20126;-75
2022/07/17 01:24:34;;;;;;;2.20;2.00;;;;;;;;;;4958097;28;20058;-75
2022/07/17 01:27:00;;;;;;;2.42;2.25;;;;;;;;;;4958248;29;20613;-75
2022/07/17 01:29:26;;;;;;;2.88;1.83;;;;;;;;;;4959046;29;20152;-75
2022/07/17 01:31:52;;;;;;;2.80;2.20;;;;;;;;;;4958884;29;20101;-75
2022/07/17 01:34:19;;;;;;;2.85;2.40;;;;;;;;;;4958512;28;20043;-75
2022/07/17 01:36:45;;;;;;;2.85;1.90;;;;;;;;;;4958891;28;20039;-75
2022/07/17 01:39:11;;;;;;;2.88;2.65;;;;;;;;;;4958859;28;20098;-75
2022/07/17 01:41:37;;;;;;;3.00;2.45;;;;;;;;;;4958779;28;20194;-75
2022/07/17 01:44:04;;;;;;;2.67;2.47;;;;;;;;;;4958721;28;20039;-75
2022/07/17 01:46:30;;;;;;;2.65;2.42;;;;;;;;;;4958493;29;20039;-75
2022/07/17 01:48:56;;;;;;;3.70;2.67;;;;;;;;;;4958691;28;20047;-75
2022/07/17 01:51:22;;;;;;;3.15;2.40;;;;;;;;;;4958657;29;20043;-75
2022/07/17 01:53:48;;;;;;;3.20;2.83;;;;;;;;;;4958585;29;20106;-75
2022/07/17 01:56:14;;;;;;;2.58;2.40;;;;;;;;;;4958737;29;20097;-75
2022/07/17 01:58:40;;;;;;;2.75;2.55;;;;;;;;;;4958744;28;20089;-75
2022/07/17 02:01:07;;;;;;;3.30;2.65;;;;;;;;;;4958775;29;20129;-75
2022/07/17 02:03:33;;;;;;;2.85;2.65;;;;;;;;;;4958450;29;20499;-75
2022/07/17 02:05:59;;;;;;;2.65;2.45;;;;;;;;;;4958404;29;20513;-75
2022/07/17 02:08:25;;;;;;;3.38;3.08;;;;;;;;;;4958042;29;20047;-75
2022/07/17 02:10:51;;;;;;;4.95;2.88;;;;;;;;;;4958359;29;20100;-75
2022/07/17 02:13:17;;;;;;;3.05;2.38;;;;;;;;;;4958163;28;20078;-75
2022/07/17 02:15:43;;;;;;;3.50;2.78;;;;;;;;;;4957955;29;20372;-75
2022/07/17 02:18:09;;;;;;;3.00;2.70;;;;;;;;;;4957937;29;20054;-75
2022/07/17 02:20:36;;;;;;;3.53;2.50;;;;;;;;;;4958453;29;20043;-75
2022/07/17 02:23:02;;;;;;;3.08;2.85;;;;;;;;;;4957839;29;20046;-75
2022/07/17 02:25:28;;;;;;;4.00;2.80;;;;;;;;;;4958049;29;20047;-75
2022/07/17 02:27:54;;;;;;;3.38;2.50;;;;;;;;;;4958359;29;20051;-75
2022/07/17 02:30:20;;;;;;;3.45;2.90;;;;;;;;;;4957966;29;20126;-75
2022/07/17 02:32:46;;;;;;;2.65;2.45;;;;;;;;;;4957664;29;20051;-75
2022/07/17 02:35:13;;;;;;;3.60;2.85;;;;;;;;;;4957852;29;20046;-75
2022/07/17 02:37:39;;;;;;;2.70;2.50;;;;;;;;;;4957385;28;20047;-75
2022/07/17 02:40:05;;;;;;;3.08;2.83;;;;;;;;;;4957783;29;20513;-75
2022/07/17 02:42:32;;;;;;;3.00;2.70;;;;;;;;;;4957809;29;20051;-75
2022/07/17 02:44:59;;;;;;;3.15;2.78;;;;;;;;;;4957392;29;20050;-75
2022/07/17 02:47:26;;;;;;;5.20;2.90;;;;;;;;;;4957637;28;20075;-75
2022/07/17 02:49:52;;;;;;;3.97;2.67;;;;;;;;;;4957877;28;20553;-75
2022/07/17 02:52:19;;;;;;;3.60;3.05;;;;;;;;;;4957660;28;20138;-75
2022/07/17 02:54:45;;;;;;;2.92;2.67;;;;;;;;;;4957484;29;20043;-75
2022/07/17 02:57:12;;;;;;;2.90;2.63;;;;;;;;;;4957482;28;20510;-75
2022/07/17 02:59:38;;;;;;;3.10;2.80;;;;;;;;;;4957202;28;20070;-75
2022/07/17 03:02:04;;;;;;;3.53;3.00;;;;;;;;;;4957565;29;20110;-75
2022/07/17 03:04:30;;;;;;;3.05;2.83;;;;;;;;;;4957445;28;20434;-75
2022/07/17 03:06:57;;;;;;;3.38;3.08;;;;;;;;;;4957012;28;20502;-75
2022/07/17 03:09:23;;;;;;;4.40;3.08;;;;;;;;;;4957241;29;20492;-75
2022/07/17 03:11:49;;;;;;;4.18;3.17;;;;;;;;;;4957141;29;20046;-75
2022/07/17 03:14:15;;;;;;;6.97;3.05;;;;;;;;;;4956900;28;20046;-75
2022/07/17 03:16:41;;;;;;;3.70;3.40;;;;;;;;;;4957670;29;20555;-75
2022/07/17 03:19:07;;;;;;;3.40;3.10;;;;;;;;;;4956603;29;20055;-75
2022/07/17 03:21:33;;;;;;;3.20;3.00;;;;;;;;;;4956786;29;20035;-75
2022/07/17 03:23:59;;;;;;;3.72;3.20;;;;;;;;;;4957015;28;20039;-75
2022/07/17 03:26:26;;;;;;;3.75;3.35;;;;;;;;;;4956950;28;20046;-75
2022/07/17 03:28:52;;;;;;;3.83;3.08;;;;;;;;;;4957031;29;20122;-75
2022/07/17 03:31:18;;;;;;;3.63;3.33;;;;;;;;;;4956910;29;20178;-75
2022/07/17 03:33:44;;;;;;;6.13;3.15;;;;;;;;;;4956623;28;20059;-75
2022/07/17 03:36:10;;;;;;;3.53;3.22;;;;;;;;;;4956947;29;20498;-75
2022/07/17 03:38:36;;;;;;;5.13;3.30;;;;;;;;;;4956393;29;20047;-75
2022/07/17 03:41:02;;;;;;;3.58;3.28;;;;;;;;;;4956793;29;20043;-75
2022/07/17 03:43:28;;;;;;;3.83;3.53;;;;;;;;;;4956453;29;20085;-75
2022/07/17 03:45:55;;;;;;;3.20;2.90;;;;;;;;;;4956627;28;20066;-75
2022/07/17 03:48:21;;;;;;;3.25;2.95;;;;;;;;;;4956090;28;20055;-75
2022/07/17 03:50:47;;;;;;;4.25;3.13;;;;;;;;;;4956930;28;20039;-75
2022/07/17 03:53:13;;;;;;;3.80;3.40;;;;;;;;;;4956219;29;20087;-75
2022/07/17 03:55:39;;;;;;;3.67;3.30;;;;;;;;;;4956303;29;20065;-75
2022/07/17 03:58:05;;;;;;;3.88;3.47;;;;;;;;;;4956595;28;20054;-75
2022/07/17 04:00:31;;;;;;;3.58;3.28;;;;;;;;;;4956913;29;20039;-75
2022/07/17 04:02:57;;;;;;;3.90;3.30;;;;;;;;;;4956342;28;20046;-75
2022/07/17 04:05:23;;;;;;;4.43;3.75;;;;;;;;;;4956471;29;20039;-75
2022/07/17 04:07:50;;;;;;;3.53;3.22;;;;;;;;;;4956104;29;20051;-75
2022/07/17 04:10:16;;;;;;;3.50;3.20;;;;;;;;;;4956961;29;20050;-75
2022/07/17 04:12:42;;;;;;;5.20;3.75;;;;;;;;;;4956300;29;20051;-75
2022/07/17 04:15:08;;;;;;;3.63;3.30;;;;;;;;;;4956592;28;20036;-75
2022/07/17 04:17:34;;;;;;;6.82;3.38;;;;;;;;;;4956054;28;20058;-75
2022/07/17 04:20:01;;;;;;;4.28;3.20;;;;;;;;;;4956154;29;20059;-75
2022/07/17 04:22:27;;;;;;;3.83;3.53;;;;;;;;;;4956295;28;20070;-75
2022/07/17 04:24:53;;;;;;;4.45;3.30;;;;;;;;;;4956302;28;20134;-75
2022/07/17 04:27:19;;;;;;;5.82;3.70;;;;;;;;;;4956410;29;20050;-75
2022/07/17 04:29:45;;;;;;;4.80;3.45;;;;;;;;;;4956258;29;20525;-75
2022/07/17 04:32:12;;;;;;;3.85;3.50;;;;;;;;;;4956126;28;20046;-75
2022/07/17 04:34:38;;;;;;;4.00;3.70;;;;;;;;;;4956058;29;20043;-75
2022/07/17 04:37:04;;;;;;;3.50;3.20;;;;;;;;;;4956183;29;20550;-75
2022/07/17 04:39:30;;;;;;;5.25;3.75;;;;;;;;;;4956191;28;20051;-75
2022/07/17 04:41:57;;;;;;;5.25;3.40;;;;;;;;;;4955850;29;20040;-75
2022/07/17 04:44:23;;;;;;;4.22;3.67;;;;;;;;;;4956119;29;20101;-75
2022/07/17 04:46:49;;;;;;;4.00;3.50;;;;;;;;;;4956594;29;20039;-74
2022/07/17 04:49:15;;;;;;;4.93;3.38;;;;;;;;;;4955775;29;20498;-75
2022/07/17 04:51:41;;;;;;;4.15;3.72;;;;;;;;;;4955912;28;20038;-74
2022/07/17 04:54:07;;;;;;;3.92;3.47;;;;;;;;;;4956062;29;20581;-75
2022/07/17 04:56:34;;;;;;;5.38;3.60;;;;;;;;;;4956286;29;20039;-75
2022/07/17 04:59:00;;;;;;;3.90;3.58;;;;;;;;;;4956088;28;20051;-75
2022/07/17 05:01:26;;;;;;;3.90;3.60;;;;;;;;;;4959105;29;20094;-75
2022/07/17 05:03:52;;;;;;;5.32;3.45;;;;;;;;;;4959461;29;20509;-75
2022/07/17 05:06:18;;;;;;;4.95;2.95;;;;;;;;;;4959616;29;20074;-75
2022/07/17 05:08:44;;;;;;;7.30;3.88;;;;;;;;;;4959326;29;20126;-75
2022/07/17 05:11:10;;;;;;;4.65;3.58;;;;;;;;;;4959422;29;20043;-75
2022/07/17 05:13:36;;;;;;;6.25;4.05;;;;;;;;;;4974230;28;20454;-75
2022/07/17 05:16:03;;;;;;;3.60;3.30;;;;;;;;;;4959328;29;20046;-75
2022/07/17 05:18:29;;;;;;;7.32;4.35;;;;;;;;;;4959031;29;20082;-75
2022/07/17 05:20:55;;;;;;;4.47;3.45;;;;;;;;;;4958679;29;20043;-75
2022/07/17 05:23:21;;;;;;;4.20;3.90;;;;;;;;;;4958599;29;20058;-75
2022/07/17 05:25:47;;;;;;;5.95;3.97;;;;;;;;;;4959200;29;20043;-75
2022/07/17 05:28:13;;;;;;;3.58;3.28;;;;;;;;;;4959401;29;20039;-75
2022/07/17 05:30:39;;;;;;;3.97;3.58;;;;;;;;;;4959025;28;20156;-75
2022/07/17 05:33:05;;;;;;;4.18;3.72;;;;;;;;;;4958374;28;20047;-75
2022/07/17 05:35:32;;;;;;;3.55;3.25;;;;;;;;;;4958878;28;20043;-75
2022/07/17 05:37:58;;;;;;;8.88;3.80;;;;;;;;;;4959226;29;20067;-75
2022/07/17 05:40:25;;;;;;;3.90;3.60;;;;;;;;;;4958977;29;20066;-75
2022/07/17 05:42:51;;;;;;;3.78;3.38;;;;;;;;;;4959024;29;20074;-75
2022/07/17 05:45:18;;;;;;;7.22;3.20;;;;;;;;;;4958761;29;20049;-75
2022/07/17 05:47:44;;;;;;;4.63;3.25;;;;;;;;;;4958714;28;20049;-76
2022/07/17 05:50:10;;;;;;;3.65;3.10;;;;;;;;;;4958715;29;20482;-75
2022/07/17 05:52:36;;;;;;;3.83;3.30;;;;;;;;;;4958565;28;20051;-75
2022/07/17 05:55:03;;;;;;;6.07;3.50;;;;;;;;;;4958382;29;20074;-76
2022/07/17 05:57:29;;;;;;;7.13;3.42;;;;;;;;;;4958739;29;20101;-76
2022/07/17 05:59:55;;;;;;;3.22;2.92;;;;;;;;;;4958276;29;20043;-76
2022/07/17 06:02:21;;;;;;;5.00;3.10;;;;;;;;;;4958212;29;20506;-76
2022/07/17 06:04:47;;;;;;;6.63;3.35;;;;;;;;;;4958041;29;20054;-76
2022/07/17 06:07:13;;;;;;;4.50;2.97;;;;;;;;;;4958900;29;20039;-76
2022/07/17 06:09:39;;;;;;;4.38;3.10;;;;;;;;;;4958588;28;20095;-76
2022/07/17 06:12:06;;;;;;;3.55;3.22;;;;;;;;;;4957499;28;20149;-76
2022/07/17 06:14:32;;;;;;;5.25;3.17;;;;;;;;;;4957905;29;20043;-76
2022/07/17 06:16:58;;;;;;;5.18;3.00;;;;;;;;;;4958043;29;20039;-76
2022/07/17 06:19:24;;;;;;;6.18;3.40;;;;;;;;;;4972739;28;20441;-76
2022/07/17 06:21:50;;;;;;;6.05;3.10;;;;;;;;;;4958196;29;20098;-76
2022/07/17 06:24:16;;;;;;;6.47;3.22;;;;;;;;;;4958344;28;20098;-76
2022/07/17 06:26:42;;;;;;;4.03;3.30;;;;;;;;;;4958362;29;20054;-76
2022/07/17 06:29:08;;;;;;;5.13;3.20;;;;;;;;;;4958382;29;20114;-77
2022/07/17 06:31:35;;;;;;;3.63;3.25;;;;;;;;;;4957987;29;20057;-77
2022/07/17 06:34:01;;;;;;;5.65;2.83;;;;;;;;;;4957991;28;20058;-76
2022/07/17 06:36:27;;;;;;;3.10;2.90;;;;;;;;;;4958681;29;20047;-76
2022/07/17 06:38:54;;;;;;;4.32;3.25;;;;;;;;;;4957212;28;20087;-76
2022/07/17 06:41:20;;;;;;;3.67;3.38;;;;;;;;;;4957506;29;20373;-77
2022/07/17 06:43:46;;;;;;;3.45;2.97;;;;;;;;;;4957497;29;20054;-76
2022/07/17 06:46:13;;;;;;;3.88;3.40;;;;;;;;;;4957463;29;20051;-76
2022/07/17 06:48:39;;;;;;;3.75;3.00;;;;;;;;;;4957679;28;20098;-76
2022/07/17 06:51:05;;;;;;;3.50;3.20;;;;;;;;;;4957263;29;20047;-76
2022/07/17 06:53:31;;;;;;;5.15;3.33;;;;;;;;;;4957191;29;20051;-77
2022/07/17 06:55:57;;;;;;;5.63;2.97;;;;;;;;;;4970887;28;20506;-77
2022/07/17 06:58:23;;;;;;;2.90;2.70;;;;;;;;;;4962098;28;20051;-76
2022/07/17 07:00:49;;;;;;;4.57;2.83;;;;;;;;;;4958938;28;20039;-76
2022/07/17 07:03:16;;;;;;;3.70;3.05;;;;;;;;;;4968485;28;20046;-77
2022/07/17 07:05:42;;;;;;;5.68;3.58;;;;;;;;;;4976938;28;20541;-76
2022/07/17 07:08:08;;;;;;;10.27;3.45;;;;;;;;;;4976851;28;20034;-77
2022/07/17 07:10:34;;;;;;;5.25;3.17;;;;;;;;;;4963471;28;20051;-77
2022/07/17 07:13:01;;;;;;;5.43;3.10;;;;;;;;;;4976394;28;20046;-77
2022/07/17 07:15:27;;;;;;;3.80;2.65;;;;;;;;;;4970047;28;20039;-77
2022/07/17 07:17:53;;;;;;;3.33;2.50;;;;;;;;;;4956656;28;20043;-77
2022/07/17 07:20:20;;;;;;;4.68;2.78;;;;;;;;;;4956843;29;20102;-77
2022/07/17 07:22:46;;;;;;;5.80;2.85;;;;;;;;;;4956102;28;20446;-77
2022/07/17 07:25:12;;;;;;;3.47;2.83;;;;;;;;;;4956641;28;20035;-76
2022/07/17 07:27:38;;;;;;;3.78;2.70;;;;;;;;;;4963443;28;20125;-77
2022/07/17 07:30:05;;;;;;;3.35;2.10;;;;;;;;;;4976199;28;20116;-77
2022/07/17 07:32:31;;;;;;;2.80;2.60;;;;;;;;;;4963357;28;20043;-76
2022/07/17 07:34:57;;;;;;;6.15;2.90;;;;;;;;;;4965043;28;20042;-77
2022/07/17 07:37:23;;;;;;;5.63;2.85;;;;;;;;;;4974191;28;20137;-76
2022/07/17 07:39:49;;;;;;;3.13;2.92;;;;;;;;;;4976135;28;20039;-76
2022/07/17 07:42:15;;;;;;;3.63;2.40;;;;;;;;;;4975803;28;20043;-77
2022/07/17 07:44:41;;;;;;;3.13;2.83;;;;;;;;;;4975512;28;20509;-76
2022/07/17 07:47:08;;;;;;;4.70;3.05;;;;;;;;;;4972917;28;20067;-77
2022/07/17 07:49:34;;;;;;;4.80;3.05;;;;;;;;;;4955893;29;20642;-76
2022/07/17 07:52:00;;;;;;;3.00;2.80;;;;;;;;;;4972458;28;20070;-75
2022/07/17 07:54:26;;;;;;;4.20;2.88;;;;;;;;;;4975297;28;20049;-77
2022/07/17 07:56:54;;;;;;;5.13;3.03;;;;;;;;;;4975326;28;20046;-77
2022/07/17 07:59:20;;;;;;;3.55;2.90;;;;;;;;;;4974493;28;20074;-76
2022/07/17 08:01:46;;;;;;;3.67;2.80;;;;;;;;;;4974950;28;20074;-76
2022/07/17 08:04:12;;;;;;;3.17;2.70;;;;;;;;;;4974987;28;20039;-76
2022/07/17 08:06:39;;;;;;;4.57;3.08;;;;;;;;;;4975646;28;20102;-76
2022/07/17 08:09:05;;;;;;;3.72;3.03;;;;;;;;;;4974253;28;20043;-77
2022/07/17 08:11:31;;;;;;;6.32;3.22;;;;;;;;;;4975127;28;20130;-76
2022/07/17 08:13:59;;;;;;;6.57;3.25;;;;;;;;;;4970841;28;20051;-74
2022/07/17 08:16:25;;;;;;;2.90;2.53;;;;;;;;;;4962648;28;20518;-75
2022/07/17 08:18:51;;;;;;;3.30;3.10;;;;;;;;;;4968109;28;20062;-76
2022/07/17 08:21:17;;;;;;;3.10;2.80;;;;;;;;;;4974284;28;20502;-74
2022/07/17 08:23:43;;;;;;;4.47;2.83;;;;;;;;;;4963621;28;20047;-74
2022/07/17 08:26:09;;;;;;;3.53;3.20;;;;;;;;;;4974389;28;20418;-74
2022/07/17 08:28:35;;;;;;;3.55;3.10;;;;;;;;;;4974503;28;20502;-75
2022/07/17 08:31:02;;;;;;;3.78;2.90;;;;;;;;;;4973290;28;20633;-75
2022/07/17 08:33:28;;;;;;;3.92;3.35;;;;;;;;;;4972771;28;20050;-75
2022/07/17 08:35:54;;;;;;;4.07;2.75;;;;;;;;;;4970622;28;20051;-74
2022/07/17 08:38:21;;;;;;;3.97;2.70;;;;;;;;;;4971575;28;20041;-74
2022/07/17 08:40:49;;;;;;;3.55;3.25;;;;;;;;;;4968302;28;20126;-73
2022/07/17 08:43:15;;;;;;;6.63;3.10;;;;;;;;;;4957283;28;20054;-73
2022/07/17 08:45:42;;;;;;;7.85;2.75;;;;;;;;;;4958577;28;20043;-73
2022/07/17 08:48:10;;;;;;;3.17;2.70;;;;;;;;;;4958381;29;20043;-74
2022/07/17 08:50:36;;;;;;;5.50;2.90;;;;;;;;;;4958401;29;20051;-73
2022/07/17 08:53:03;;;;;;;4.93;3.28;;;;;;;;;;4960016;28;20486;-73
2022/07/17 08:55:29;;;;;;;3.65;2.70;;;;;;;;;;4959114;29;20050;-74
2022/07/17 08:57:55;;;;;;;3.60;2.90;;;;;;;;;;4961984;28;20409;-73
2022/07/17 09:00:22;;;;;;;4.40;2.80;;;;;;;;;;4978327;28;20071;-74
2022/07/17 09:02:56;;;;;;;3.25;2.80;;;;;;;;;;4978233;28;20051;-74
2022/07/17 09:05:22;;;;;;;4.13;2.63;;;;;;;;;;4977111;28;20498;-73
2022/07/17 09:07:49;;;;;;;4.35;3.38;;;;;;;;;;4978208;28;20046;-73
2022/07/17 09:10:15;;;;;;;2.72;2.53;;;;;;;;;;4978402;28;20046;-73
2022/07/17 09:12:41;;;;;;;2.80;2.60;;;;;;;;;;4978586;28;20051;-74
2022/07/17 09:15:20;;;;;;;4.47;2.72;;;;;;;;;;4976950;28;20108;-74
2022/07/17 09:17:50;;;;;;;5.10;2.55;;;;;;;;;;4975035;28;20046;-74
2022/07/17 09:20:16;;;;;;;5.10;2.70;;;;;;;;;;4976523;28;20490;-74
2022/07/17 09:22:43;;;;;;;3.78;2.80;;;;;;;;;;4976633;28;20043;-72
2022/07/17 09:25:10;;;;;;;4.43;3.10;;;;;;;;;;4967262;28;20046;-74
2022/07/17 09:27:36;;;;;;;6.55;3.00;;;;;;;;;;4977180;28;20042;-73
2022/07/17 09:30:04;;;;;;;4.05;2.90;;;;;;;;;;4976670;28;20043;-73
2022/07/17 09:32:42;;;;;;;3.85;3.03;;;;;;;;;;4975358;28;20038;-73
2022/07/17 09:35:11;;;;;;;5.03;2.90;;;;;;;;;;4977936;28;20160;-73
2022/07/17 09:37:38;;;;;;;5.90;3.05;;;;;;;;;;4976818;28;20046;-73
2022/07/17 09:42:59;;;;;;;4.00;2.70;;;;;;;;;;4974911;28;20101;-73
2022/07/17 09:45:27;;;;;;;6.72;2.38;;;;;;;;;;4973956;28;20055;-76
2022/07/17 09:47:57;;;;;;;3.88;2.60;;;;;;;;;;4977258;28;20046;-75
2022/07/17 09:50:24;;;;;;;4.68;2.53;;;;;;;;;;4977407;28;20130;-74
2022/07/17 09:52:55;;;;;;;3.53;2.70;;;;;;;;;;4977043;28;20050;-73
2022/07/17 09:55:21;;;;;;;3.47;3.03;;;;;;;;;;4978534;28;20489;-72
2022/07/17 09:57:48;;;;;;;2.95;2.60;;;;;;;;;;4969365;28;20126;-72
2022/07/17 10:00:14;;;;;;;3.92;2.55;;;;;;;;;;4977056;28;20047;-72
2022/07/17 10:02:41;;;;;;;2.65;2.45;;;;;;;;;;4976209;28;20034;-74
2022/07/17 10:05:20;;;;;;;3.00;2.70;;;;;;;;;;4962543;28;20529;-73
2022/07/17 10:07:46;;;;;;;3.08;2.75;;;;;;;;;;4958375;29;20043;-73
2022/07/17 10:10:13;;;;;;;8.02;3.00;;;;;;;;;;4958953;29;20127;-72
2022/07/17 10:12:41;;;;;;;7.40;2.90;;;;;;;;;;4957644;29;20051;-73
2022/07/17 10:15:08;;;;;;;5.25;3.60;;;;;;;;;;4954813;28;20055;-72
2022/07/17 10:17:34;;;;;;;4.35;2.88;;;;;;;;;;4958125;28;20043;-73
2022/07/17 10:20:00;;;;;;;4.38;2.70;;;;;;;;;;4958116;28;20125;-72
2022/07/17 10:22:27;;;;;;;4.88;3.00;;;;;;;;;;4958341;28;20043;-73
2022/07/17 10:24:54;;;;;;;3.03;2.83;;;;;;;;;;4958412;28;20069;-72
2022/07/17 10:27:26;;;;;;;5.20;3.00;;;;;;;;;;4958333;28;20031;-73
2022/07/17 10:30:03;;;;;;;3.40;3.10;;;;;;;;;;4958497;28;20043;-72
2022/07/17 10:32:29;;;;;;;2.78;2.58;;;;;;;;;;4958685;28;20047;-72
2022/07/17 10:34:59;;;;;;;3.80;3.35;;;;;;;;;;4957945;28;20110;-72
2022/07/17 10:37:27;;;;;;;5.32;3.97;;;;;;;;;;4958478;28;20114;-72
2022/07/17 10:40:04;;;;;;;4.25;3.60;;;;;;;;;;4958147;28;20047;-73
2022/07/17 10:42:39;;;;;;;4.68;3.72;;;;;;;;;;4957860;28;20069;-72
2022/07/17 10:45:07;;;;;;;4.93;2.58;;;;;;;;;;4957772;28;20098;-73
2022/07/17 10:47:43;;;;;;;3.05;2.75;;;;;;;;;;4958301;28;20074;-72
2022/07/17 10:50:09;;;;;;;3.63;2.90;;;;;;;;;;4958206;28;20051;-72
2022/07/17 10:52:35;;;;;;;4.55;2.70;;;;;;;;;;4957519;28;20043;-72
2022/07/17 10:55:04;;;;;;;4.28;2.88;;;;;;;;;;4957879;28;20051;-72
2022/07/17 10:57:31;;;;;;;3.00;2.40;;;;;;;;;;4957245;28;20146;-73
2022/07/17 10:59:57;;;;;;;2.80;2.60;;;;;;;;;;4957803;28;20130;-73
2022/07/17 11:02:30;;;;;;;3.42;2.75;;;;;;;;;;4957890;28;20134;-72
2022/07/17 11:05:17;;;;;;;6.13;3.20;;;;;;;;;;4957936;28;20043;-72
2022/07/17 11:07:50;;;;;;;2.90;2.50;;;;;;;;;;4957799;28;20039;-72
2022/07/17 11:10:16;;;;;;;7.28;2.88;;;;;;;;;;4958117;28;20043;-73
2022/07/17 11:12:43;;;;;;;4.78;2.80;;;;;;;;;;4957482;28;20046;-73
2022/07/17 11:15:09;;;;;;;5.00;3.08;;;;;;;;;;4957550;28;20122;-72
2022/07/17 11:17:35;;;;;;;3.17;2.70;;;;;;;;;;4957758;28;20051;-73
2022/07/17 11:20:02;;;;;;;4.43;2.95;;;;;;;;;;4956058;28;20062;-73
2022/07/17 11:22:29;;;;;;;28.75;25.75;;;;;;;;;;4955956;28;20043;-72
2022/07/17 11:24:55;;;;;;;24.63;21.50;;;;;;;;;;4956260;29;20046;-72
2022/07/17 11:27:26;;;;;;;4.72;4.32;;;;;;;;;;4956169;29;20041;-72
2022/07/17 11:29:53;;;;;;;5.18;3.28;;;;;;;;;;4956521;28;20047;-73
2022/07/17 11:32:19;;;;;;;5.43;2.97;;;;;;;;;;4956073;28;20043;-72
2022/07/17 11:34:46;;;;;;;5.72;3.58;;;;;;;;;;4956002;28;20047;-72
2022/07/17 11:37:12;;;;;;;6.18;3.67;;;;;;;;;;4955796;28;20047;-73
2022/07/17 11:39:40;;;;;;;3.70;3.30;;;;;;;;;;4956108;28;20354;-73
2022/07/17 11:42:11;;;;;;;5.65;3.10;;;;;;;;;;4955995;28;20039;-72
2022/07/17 11:44:37;;;;;;;;;;;;;;;;;;4956151;28;20121;-73
2022/07/17 11:47:03;;;;;;;3.55;2.88;;;;;;;;;;4955730;29;19952;-72
2022/07/17 11:49:34;;;;;;;5.50;3.03;;;;;;;;;;4955863;28;20039;-72
2022/07/17 11:52:08;;;;;;;4.10;3.70;;;;;;;;;;4955533;28;20532;-72
2022/07/17 11:54:44;;;;;;;3.78;3.17;;;;;;;;;;4956151;28;20044;-72
2022/07/17 11:57:10;;;;;;;3.30;3.00;;;;;;;;;;4956395;28;20043;-72
2022/07/17 11:59:36;;;;;;;3.95;2.92;;;;;;;;;;4955895;28;20097;-73
2022/07/17 12:02:09;;;;;;;3.17;2.90;;;;;;;;;;4955786;28;20519;-72
2022/07/17 12:04:36;;;;;;;4.18;2.67;;;;;;;;;;4955487;28;20046;-72
2022/07/17 12:07:03;;;;;;;3.13;2.83;;;;;;;;;;4955818;28;20039;-73
2022/07/17 12:09:33;;;;;;;4.05;3.65;;;;;;;;;;4954891;28;20051;-73
2022/07/17 12:11:59;;;;;;;4.57;2.90;;;;;;;;;;4955354;28;20043;-72
2022/07/17 12:14:26;;;;;;;3.60;3.10;;;;;;;;;;4955625;28;20074;-73
2022/07/17 12:16:52;;;;;;;4.45;3.13;;;;;;;;;;4955937;28;20046;-73
2022/07/17 12:19:19;;;;;;;3.50;2.90;;;;;;;;;;4908362;28;1396300;-73
2022/07/17 12:21:55;;;;;;;4.35;3.17;;;;;;;;;;4956617;28;20102;-73
2022/07/17 12:24:26;;;;;;;4.22;3.05;;;;;;;;;;4957121;28;20043;-73
2022/07/17 12:26:52;;;;;;;3.00;2.80;;;;;;;;;;4956031;28;20043;-72
2022/07/17 12:29:19;;;;;;;3.47;3.10;;;;;;;;;;4956551;28;20054;-72
2022/07/17 12:31:45;;;;;;;3.88;3.47;;;;;;;;;;4956180;28;20050;-73
2022/07/17 12:34:11;;;;;;;3.67;3.20;;;;;;;;;;4955973;28;20043;-73
2022/07/17 12:36:37;;;;;;;4.45;2.97;;;;;;;;;;4956161;28;20047;-73
2022/07/17 12:39:04;;;;;;;4.03;3.58;;;;;;;;;;4956305;28;20039;-72
2022/07/17 12:41:30;;;;;;;5.05;3.22;;;;;;;;;;4955751;28;20102;-73
2022/07/17 12:43:56;;;;;;;4.13;2.67;;;;;;;;;;4955851;28;20102;-73
2022/07/17 12:46:22;;;;;;;3.22;2.92;;;;;;;;;;4956148;28;20043;-72
2022/07/17 12:48:49;;;;;;;4.10;2.72;;;;;;;;;;4956066;28;20050;-73
2022/07/17 12:51:15;;;;;;;3.47;3.17;;;;;;;;;;4955843;28;20050;-73
2022/07/17 12:53:42;;;;;;;3.38;2.55;;;;;;;;;;4955969;28;20082;-72
2022/07/17 12:56:08;;;;;;;4.10;2.67;;;;;;;;;;4956503;28;20122;-72
2022/07/17 12:58:35;;;;;;;5.65;2.75;;;;;;;;;;4955919;28;20110;-72
2022/07/17 13:01:01;;;;;;;4.43;3.28;;;;;;;;;;4956753;28;20061;-73
2022/07/17 13:03:27;;;;;;;4.28;3.20;;;;;;;;;;4955794;28;20145;-72
2022/07/17 13:05:54;;;;;;;3.05;2.85;;;;;;;;;;4956024;28;20122;-72
2022/07/17 13:08:20;;;;;;;4.45;2.83;;;;;;;;;;4956208;28;20051;-72
2022/07/17 13:10:46;;;;;;;3.88;2.55;;;;;;;;;;4955654;28;20042;-72
2022/07/17 13:13:12;;;;;;;4.28;3.10;;;;;;;;;;4955959;28;20047;-72
2022/07/17 13:15:38;;;;;;;4.65;3.00;;;;;;;;;;4956645;28;20073;-73
2022/07/17 13:18:04;;;;;;;5.10;3.33;;;;;;;;;;4955532;28;20506;-73
2022/07/17 13:20:30;;;;;;;4.28;3.00;;;;;;;;;;4956151;28;20061;-72
2022/07/17 13:22:57;;;;;;;7.15;3.10;;;;;;;;;;4959506;28;20047;-73
2022/07/17 13:25:23;;;;;;;7.35;3.38;;;;;;;;;;4959767;28;20054;-72
2022/07/17 13:27:49;;;;;;;3.63;3.33;;;;;;;;;;4959717;28;20043;-73
2022/07/17 13:30:15;;;;;;;3.47;3.10;;;;;;;;;;4959171;28;20047;-72
2022/07/17 13:32:41;;;;;;;5.38;2.80;;;;;;;;;;4959170;28;20074;-72
2022/07/17 13:35:08;;;;;;;5.05;3.55;;;;;;;;;;4959356;28;20050;-72
2022/07/17 13:37:34;;;;;;;3.92;3.50;;;;;;;;;;4959304;28;20042;-72
2022/07/17 13:40:00;;;;;;;6.18;3.30;;;;;;;;;;4958951;28;20035;-73
2022/07/17 13:42:26;;;;;;;4.65;3.03;;;;;;;;;;4959358;28;20065;-73
2022/07/17 13:44:52;;;;;;;3.10;2.90;;;;;;;;;;4959206;28;20490;-73
2022/07/17 13:47:18;;;;;;;3.83;3.20;;;;;;;;;;4959110;28;20039;-73
2022/07/17 13:49:45;;;;;;;3.13;2.90;;;;;;;;;;4958957;28;20190;-73
2022/07/17 13:52:11;;;;;;;4.88;3.17;;;;;;;;;;4958679;28;20402;-73
2022/07/17 13:54:37;;;;;;;5.22;3.10;;;;;;;;;;4959310;28;20047;-72
2022/07/17 13:57:03;;;;;;;3.67;3.13;;;;;;;;;;4958708;28;20039;-72
2022/07/17 13:59:29;;;;;;;5.85;3.70;;;;;;;;;;4959235;28;20051;-73
2022/07/17 14:01:55;;;;;;;3.53;3.22;;;;;;;;;;4959122;28;20068;-72
2022/07/17 14:04:21;;;;;;;5.72;3.10;;;;;;;;;;4958677;28;20126;-72
2022/07/17 14:06:48;;;;;;;3.83;3.17;;;;;;;;;;4958823;28;20043;-72
2022/07/17 14:09:14;;;;;;;5.30;3.22;;;;;;;;;;4958478;28;20073;-73
2022/07/17 14:11:40;;;;;;;6.03;3.13;;;;;;;;;;4958711;28;20050;-72
2022/07/17 14:14:06;;;;;;;8.02;2.83;;;;;;;;;;4958615;28;20143;-72
2022/07/17 14:16:32;;;;;;;3.65;3.30;;;;;;;;;;4958841;28;20130;-73
2022/07/17 14:18:58;;;;;;;5.40;3.40;;;;;;;;;;4958163;28;20055;-72
2022/07/17 14:21:36;;;;;;;5.70;3.15;;;;;;;;;;4958224;28;20094;-73
2022/07/17 14:24:02;;;;;;;8.73;3.50;;;;;;;;;;4957884;28;20126;-73
2022/07/17 14:26:29;;;;;;;3.53;3.17;;;;;;;;;;4958709;28;20039;-73
2022/07/17 14:28:55;;;;;;;4.95;3.08;;;;;;;;;;4958180;28;20051;-73
2022/07/17 14:31:21;;;;;;;4.50;3.50;;;;;;;;;;4958209;28;20071;-73
2022/07/17 14:33:47;;;;;;;6.47;3.00;;;;;;;;;;4956518;28;20047;-72
2022/07/17 14:36:14;;;;;;;4.15;3.55;;;;;;;;;;4957843;28;20035;-72
2022/07/17 14:38:40;;;;;;;8.50;2.90;;;;;;;;;;4957762;28;20126;-72
2022/07/17 14:41:06;;;;;;;3.25;2.95;;;;;;;;;;4958384;28;20067;-72
2022/07/17 14:43:33;;;;;;;4.32;2.70;;;;;;;;;;4957822;28;20054;-72